Time;durP1;ratioP1;P1;durP2;ratioP2;P2;SDS_P1;SDS_P2;PMS_P1;PMS_P2;Temp;Humidity;BMP_temperature;BMP_pressure;BME280_temperature;BME280_humidity;BME280_pressure;Samples;Min_cycle;Max_cycle;Signal;HPM_P1;HPM_P2
2021/07/28 00:00:20;;;;;;;8.60;7.47;;;;;;;;;;4937911;29;20458;-88
2021/07/28 00:02:47;;;;;;;8.10;7.20;;;;;;;;;;4937677;29;20460;-88
2021/07/28 00:05:15;;;;;;;8.10;7.30;;;;;;;;;;4936347;29;20460;-88
2021/07/28 00:07:42;;;;;;;9.17;6.80;;;;;;;;;;4933671;29;20495;-88
2021/07/28 00:10:10;;;;;;;9.10;6.90;;;17.90;99.90;;;;;;4937593;29;20455;-88
2021/07/28 00:12:37;;;;;;;7.17;6.47;;;;;;;;;;4937590;29;20459;-88
2021/07/28 00:15:07;;;;;;;10.07;6.77;;;17.90;99.90;;;;;;4937616;29;20959;-88
2021/07/28 00:17:35;;;;;;;7.07;6.30;;;;;;;;;;4937631;29;20456;-88
2021/07/28 00:20:05;;;;;;;8.47;7.30;;;;;;;;;;4936417;29;20467;-88
2021/07/28 00:25:21;;;;;;;7.53;6.77;;;;;;;;;;4937479;29;20447;-88
2021/07/28 00:27:49;;;;;;;8.60;6.83;;;;;;;;;;4937356;29;21006;-89
2021/07/28 00:30:17;;;;;;;9.40;8.20;;;;;;;;;;4937227;29;20841;-89
2021/07/28 00:32:44;;;;;;;7.87;7.10;;;;;;;;;;4937206;29;20456;-88
2021/07/28 00:35:11;;;;;;;9.90;8.30;;;;;;;;;;4935955;29;20821;-88
2021/07/28 00:37:40;;;;;;;10.30;7.40;;;17.90;99.90;;;;;;4937041;29;20455;-88
2021/07/28 00:40:08;;;;;;;8.23;7.43;;;17.50;99.90;;;;;;4937194;29;20458;-88
2021/07/28 00:42:35;;;;;;;9.27;7.60;;;;;;;;;;4937017;29;20452;-88
2021/07/28 00:45:02;;;;;;;8.67;7.87;;;;;;;;;;4936878;29;20456;-88
2021/07/28 00:47:29;;;;;;;10.13;6.93;;;;;;;;;;4936657;29;20518;-88
2021/07/28 00:49:57;;;;;;;10.20;8.20;;;;;;;;;;4935970;29;20451;-88
2021/07/28 00:52:24;;;;;;;8.47;7.50;;;;;;;;;;4934177;29;20452;-88
2021/07/28 00:54:52;;;;;;;9.30;7.60;;;;;;;;;;4936814;29;20463;-88
2021/07/28 00:57:19;;;;;;;10.93;7.87;;;;;;;;;;4936792;29;20826;-88
2021/07/28 00:59:47;;;;;;;9.50;7.57;;;;;;;;;;4936838;29;20444;-88
2021/07/28 01:02:14;;;;;;;8.10;7.30;;;;;;;;;;4936734;29;20459;-88
2021/07/28 01:04:41;;;;;;;8.03;7.10;;;;;;;;;;4935346;29;20460;-86
2021/07/28 01:07:08;;;;;;;8.50;7.70;;;;;;;;;;4935918;29;20471;-86
2021/07/28 01:09:35;;;;;;;10.27;7.40;;;;;;;;;;4933483;29;20496;-85
2021/07/28 01:12:05;;;;;;;7.67;6.70;;;17.60;99.90;;;;;;4933530;29;20503;-85
2021/07/28 01:14:32;;;;;;;7.90;7.10;;;;;;;;;;4936356;29;20823;-86
2021/07/28 01:17:00;;;;;;;9.77;7.53;;;;;;;;;;4936329;29;20455;-85
2021/07/28 01:19:31;;;;;;;11.07;8.20;;;17.50;99.90;;;;;;4935126;29;20744;-85
2021/07/28 01:22:01;;;;;;;8.87;7.30;;;17.50;99.90;;;;;;4936298;29;20455;-86
2021/07/28 01:24:30;;;;;;;8.07;7.27;;;17.40;99.90;;;;;;4936265;29;20448;-85
2021/07/28 01:27:00;;;;;;;8.83;7.87;;;17.50;99.90;;;;;;4933433;29;20589;-85
2021/07/28 01:29:27;;;;;;;9.60;8.30;;;;;;;;;;4936198;29;20522;-84
2021/07/28 01:31:56;;;;;;;8.73;7.83;;;;;;;;;;4936153;29;20935;-85
2021/07/28 01:34:23;;;;;;;8.40;7.60;;;;;;;;;;4932082;29;20455;-85
2021/07/28 01:36:52;;;;;;;8.43;7.63;;;17.40;99.90;;;;;;4936426;29;20448;-87
2021/07/28 01:39:19;;;;;;;8.53;7.60;;;;;;;;;;4936738;29;20602;-86
2021/07/28 01:41:59;;;;;;;10.20;9.10;;;17.30;99.90;;;;;;4936036;29;20459;-87
2021/07/28 01:44:26;;;;;;;8.13;7.30;;;;;;;;;;4936091;29;20957;-86
2021/07/28 01:46:53;;;;;;;8.03;7.27;;;;;;;;;;4936247;29;20963;-86
2021/07/28 01:49:20;;;;;;;8.30;7.50;;;;;;;;;;4934966;29;20999;-87
2021/07/28 01:51:47;;;;;;;7.80;6.87;;;;;;;;;;4936525;29;20456;-87
2021/07/28 01:54:14;;;;;;;9.07;6.47;;;;;;;;;;4936031;29;20819;-87
2021/07/28 01:56:43;;;;;;;7.50;5.27;;;;;;;;;;4936036;29;20822;-86
2021/07/28 01:59:12;;;;;;;6.60;5.80;;;16.90;99.90;;;;;;4936176;29;20463;-87
2021/07/28 02:01:39;;;;;;;7.00;5.60;;;;;;;;;;4935866;29;20898;-86
2021/07/28 02:04:06;;;;;;;6.23;5.40;;;;;;;;;;4935790;29;20455;-86
2021/07/28 02:06:34;;;;;;;6.83;5.23;;;;;;;;;;4934974;29;20476;-86
2021/07/28 02:09:01;;;;;;;6.47;5.87;;;;;;;;;;4936252;29;20907;-86
2021/07/28 02:11:28;;;;;;;6.23;5.60;;;;;;;;;;4936875;29;20475;-87
2021/07/28 02:13:55;;;;;;;6.87;5.70;;;;;;;;;;4938673;29;20463;-86
2021/07/28 02:16:23;;;;;;;5.73;4.97;;;16.80;99.90;;;;;;4941237;29;20471;-86
2021/07/28 02:18:50;;;;;;;7.00;4.83;;;;;;;;;;4939972;29;20455;-87
2021/07/28 02:21:17;;;;;;;5.23;4.73;;;;;;;;;;4938400;29;20461;-86
2021/07/28 02:23:44;;;;;;;7.33;5.17;;;;;;;;;;4939529;29;20467;-86
2021/07/28 02:26:11;;;;;;;6.60;5.20;;;;;;;;;;4939442;29;20448;-85
2021/07/28 02:28:39;;;;;;;7.13;5.37;;;;;;;;;;4939295;29;20495;-86
2021/07/28 02:31:06;;;;;;;6.30;5.03;;;;;;;;;;4939427;29;20459;-86
2021/07/28 02:33:34;;;;;;;6.30;5.13;;;16.70;99.90;;;;;;4939202;29;20459;-86
2021/07/28 02:36:01;;;;;;;7.50;6.40;;;;;;;;;;4937836;29;20452;-86
2021/07/28 02:38:28;;;;;;;5.63;5.10;;;;;;;;;;4939056;29;20901;-86
2021/07/28 02:40:55;;;;;;;6.60;5.60;;;;;;;;;;4939041;29;20944;-86
2021/07/28 02:43:22;;;;;;;5.93;5.33;;;;;;;;;;4939121;29;20830;-86
2021/07/28 02:45:49;;;;;;;6.40;5.80;;;;;;;;;;4938923;29;20452;-86
2021/07/28 02:48:16;;;;;;;6.33;5.60;;;;;;;;;;4938787;29;20492;-86
2021/07/28 02:50:44;;;;;;;6.10;5.50;;;16.60;99.90;;;;;;4937642;29;20948;-86
2021/07/28 02:53:11;;;;;;;5.50;5.00;;;;;;;;;;4938975;29;20451;-86
2021/07/28 02:55:38;;;;;;;7.67;5.70;;;;;;;;;;4938762;29;20956;-86
2021/07/28 02:58:06;;;;;;;7.90;5.80;;;;;;;;;;4938732;29;20822;-86
2021/07/28 03:00:34;;;;;;;6.20;5.20;;;;;;;;;;4938622;29;20454;-86
2021/07/28 03:03:01;;;;;;;6.60;6.00;;;;;;;;;;4938551;29;20963;-86
2021/07/28 03:05:28;;;;;;;7.03;5.70;;;;;;;;;;4937304;29;20476;-86
2021/07/28 03:07:56;;;;;;;6.83;6.13;;;16.50;99.90;;;;;;4938580;29;20451;-86
2021/07/28 03:10:23;;;;;;;6.50;5.70;;;;;;;;;;4938597;29;20455;-86
2021/07/28 03:12:50;;;;;;;7.93;6.30;;;;;;;;;;4938307;29;20460;-86
2021/07/28 03:15:17;;;;;;;6.83;6.13;;;;;;;;;;4938523;29;20846;-86
2021/07/28 03:17:44;;;;;;;5.90;5.30;;;;;;;;;;4938491;29;20459;-86
2021/07/28 03:20:12;;;;;;;8.80;6.50;;;;;;;;;;4952457;29;20995;-86
2021/07/28 03:22:39;;;;;;;9.23;6.73;;;;;;;;;;4957514;29;20459;-86
2021/07/28 03:25:08;;;;;;;7.23;6.53;;;16.40;99.90;;;;;;4957390;29;20463;-86
2021/07/28 03:27:35;;;;;;;6.37;5.77;;;;;;;;;;4957474;29;20453;-86
2021/07/28 03:30:02;;;;;;;7.43;6.73;;;;;;;;;;4956582;28;20467;-86
2021/07/28 03:32:29;;;;;;;6.70;6.00;;;;;;;;;;4954321;29;20495;-86
2021/07/28 03:34:56;;;;;;;7.37;6.50;;;;;;;;;;4956101;29;20451;-86
2021/07/28 03:37:23;;;;;;;8.37;6.20;;;;;;;;;;4957185;29;20847;-86
2021/07/28 03:40:00;;;;;;;7.93;7.13;;;16.40;99.90;;;;;;4957149;29;20506;-86
2021/07/28 03:42:28;;;;;;;6.40;5.80;;;16.50;99.90;;;;;;4957319;29;20458;-86
2021/07/28 03:44:55;;;;;;;11.80;6.83;;;;;;;;;;4957034;29;20455;-86
2021/07/28 03:47:22;;;;;;;6.80;6.10;;;;;;;;;;4956980;29;20810;-86
2021/07/28 03:49:49;;;;;;;7.00;6.30;;;;;;;;;;4955823;29;20810;-86
2021/07/28 03:52:16;;;;;;;7.60;5.70;;;;;;;;;;4957061;29;20454;-86
2021/07/28 03:54:44;;;;;;;5.83;5.33;;;;;;;;;;4956842;29;20458;-86
2021/07/28 03:57:11;;;;;;;6.77;6.07;;;;;;;;;;4956877;29;20447;-86
2021/07/28 03:59:39;;;;;;;7.23;5.80;;;16.30;99.90;;;;;;4956860;29;20622;-86
2021/07/28 04:02:07;;;;;;;7.03;5.97;;;;;;;;;;4956826;29;20828;-86
2021/07/28 04:04:34;;;;;;;9.50;6.27;;;;;;;;;;4955466;29;20455;-86
2021/07/28 04:07:01;;;;;;;8.77;6.70;;;;;;;;;;4953691;29;20460;-86
2021/07/28 04:09:28;;;;;;;7.17;6.47;;;;;;;;;;4956561;29;20459;-86
2021/07/28 04:11:55;;;;;;;7.27;6.57;;;;;;;;;;4956532;29;20463;-86
2021/07/28 04:14:22;;;;;;;8.00;6.97;;;;;;;;;;4956588;29;20459;-86
2021/07/28 04:16:50;;;;;;;7.00;6.30;;;16.40;99.90;;;;;;4956488;29;20459;-86
2021/07/28 04:19:17;;;;;;;6.73;6.10;;;;;;;;;;4954967;29;20971;-86
2021/07/28 04:21:44;;;;;;;9.50;6.83;;;;;;;;;;4956263;29;20477;-86
2021/07/28 04:24:12;;;;;;;10.40;6.37;;;;;;;;;;4956360;29;20455;-86
2021/07/28 04:26:39;;;;;;;6.37;5.77;;;;;;;;;;4956347;29;20462;-86
2021/07/28 04:29:06;;;;;;;6.20;5.60;;;;;;;;;;4956263;29;20798;-86
2021/07/28 04:31:33;;;;;;;6.07;5.47;;;;;;;;;;4956207;29;20468;-85
2021/07/28 04:34:01;;;;;;;10.23;5.97;;;16.30;99.90;;;;;;4956134;29;20951;-86
2021/07/28 04:36:28;;;;;;;8.30;6.63;;;;;;;;;;4954868;29;20455;-86
2021/07/28 04:38:55;;;;;;;6.43;5.80;;;;;;;;;;4956048;29;20557;-86
2021/07/28 04:41:22;;;;;;;6.60;6.00;;;;;;;;;;4955140;28;20456;-86
2021/07/28 04:43:49;;;;;;;6.97;6.10;;;;;;;;;;4955995;29;20470;-86
2021/07/28 04:46:17;;;;;;;7.47;6.40;;;;;;;;;;4955983;29;20809;-86
2021/07/28 04:48:44;;;;;;;7.00;6.30;;;;;;;;;;4956137;29;20495;-86
2021/07/28 04:51:13;;;;;;;7.00;6.00;;;16.70;99.90;;;;;;4954742;29;20466;-85
2021/07/28 04:53:40;;;;;;;8.30;6.50;;;;;;;;;;4953293;29;20807;-86
2021/07/28 04:56:07;;;;;;;8.57;6.80;;;;;;;;;;4956168;29;20458;-86
2021/07/28 04:58:34;;;;;;;7.40;6.60;;;;;;;;;;4956268;29;20455;-86
2021/07/28 05:01:01;;;;;;;8.97;6.50;;;;;;;;;;4957446;29;20481;-86
2021/07/28 05:03:28;;;;;;;6.60;5.90;;;;;;;;;;4959389;29;20462;-86
2021/07/28 05:05:55;;;;;;;6.77;6.07;;;;;;;;;;4962964;29;20849;-86
2021/07/28 05:08:23;;;;;;;7.93;6.53;;;16.70;99.90;;;;;;4956844;29;20454;-86
2021/07/28 05:10:50;;;;;;;8.00;7.20;;;;;;;;;;4958258;29;20826;-85
2021/07/28 05:13:18;;;;;;;7.07;6.40;;;;;;;;;;4960832;29;20449;-86
2021/07/28 05:15:45;;;;;;;15.57;6.67;;;;;;;;;;4955892;29;20781;-86
2021/07/28 05:18:12;;;;;;;5.93;5.43;;;;;;;;;;4954057;29;20895;-86
2021/07/28 05:20:39;;;;;;;7.83;5.60;;;;;;;;;;4954367;29;20501;-85
2021/07/28 05:23:06;;;;;;;7.27;6.10;;;;;;;;;;4955862;29;20474;-86
2021/07/28 05:25:35;;;;;;;10.43;6.40;;;16.80;99.90;;;;;;4956698;29;20466;-86
2021/07/28 05:28:02;;;;;;;6.83;6.13;;;;;;;;;;4952880;29;20454;-85
2021/07/28 05:30:29;;;;;;;7.50;6.80;;;;;;;;;;4951718;29;20454;-86
2021/07/28 05:32:57;;;;;;;10.43;5.90;;;;;;;;;;4955110;29;20955;-86
2021/07/28 05:35:25;;;;;;;5.80;5.30;;;;;;;;;;4953909;29;20443;-86
2021/07/28 05:37:57;;;;;;;8.13;6.33;;;16.90;99.90;;;;;;4952421;29;20453;-86
2021/07/28 05:40:24;;;;;;;10.10;5.57;;;;;;;;;;4952074;29;20862;-86
2021/07/28 05:42:53;;;;;;;7.83;6.30;;;17.00;99.90;;;;;;4954991;29;20506;-85
2021/07/28 05:45:20;;;;;;;6.67;6.07;;;;;;;;;;4954880;29;20447;-86
2021/07/28 05:47:47;;;;;;;7.00;6.17;;;;;;;;;;4954846;29;20873;-85
2021/07/28 05:50:14;;;;;;;6.50;5.90;;;;;;;;;;4953703;29;20965;-85
2021/07/28 05:52:41;;;;;;;7.13;5.40;;;;;;;;;;4954612;28;20534;-85
2021/07/28 05:55:09;;;;;;;7.37;6.60;;;17.40;99.90;;;;;;4954970;29;20451;-86
2021/07/28 05:57:36;;;;;;;6.10;5.53;;;17.10;99.90;;;;;;4954826;29;20458;-85
2021/07/28 06:00:06;;;;;;;6.23;5.60;;;17.20;99.90;;;;;;4954971;29;20861;-85
2021/07/28 06:02:33;;;;;;;6.23;5.60;;;;;;;;;;4954936;29;20466;-86
2021/07/28 06:05:00;;;;;;;7.00;5.43;;;;;;;;;;4953764;29;20463;-86
2021/07/28 06:07:27;;;;;;;8.57;5.50;;;;;;;;;;4954818;29;20451;-86
2021/07/28 06:09:54;;;;;;;5.60;4.70;;;;;;;;;;4954884;29;20458;-86
2021/07/28 06:12:21;;;;;;;9.00;6.23;;;;;;;;;;4954729;29;20461;-86
2021/07/28 06:14:48;;;;;;;8.70;5.20;;;;;;;;;;4954770;29;20470;-86
2021/07/28 06:17:16;;;;;;;5.40;4.90;;;17.10;99.90;;;;;;4954714;29;20814;-86
2021/07/28 06:19:44;;;;;;;6.90;5.30;;;;;;;;;;4953534;29;20505;-86
2021/07/28 06:22:11;;;;;;;7.70;5.33;;;;;;;;;;4954846;29;20459;-88
2021/07/28 06:24:38;;;;;;;5.70;5.10;;;;;;;;;;4951925;29;20510;-87
2021/07/28 06:27:05;;;;;;;5.60;5.10;;;16.90;99.90;;;;;;4954732;29;20443;-87
2021/07/28 06:29:37;;;;;;;5.60;5.10;;;16.90;99.90;;;;;;4955630;29;20474;-90
2021/07/28 06:32:05;;;;;;;6.17;5.57;;;;;;;;;;4955519;29;20454;-90
2021/07/28 06:34:33;;;;;;;5.90;5.33;;;16.80;99.90;;;;;;4954816;29;20451;-89
2021/07/28 06:37:00;;;;;;;8.07;5.43;;;;;;;;;;4952533;29;20463;-90
2021/07/28 06:39:27;;;;;;;7.80;6.40;;;;;;;;;;4955412;29;20487;-91
2021/07/28 06:41:54;;;;;;;8.60;5.47;;;;;;;;;;4955459;29;20430;-91
2021/07/28 06:44:21;;;;;;;8.20;5.90;;;;;;;;;;4955490;29;20450;-90
2021/07/28 06:46:48;;;;;;;6.13;5.53;;;;;;;;;;4955602;29;20439;-92
2021/07/28 06:49:15;;;;;;;6.50;5.43;;;;;;;;;;4953722;29;20480;-92
2021/07/28 06:51:44;;;;;;;14.27;8.10;;;16.70;99.90;;;;;;4955026;29;20474;-88
2021/07/28 06:54:11;;;;;;;6.43;5.77;;;;;;;;;;4952278;29;20463;-90
2021/07/28 06:56:38;;;;;;;6.73;5.53;;;;;;;;;;4955029;29;20462;-88
2021/07/28 06:59:05;;;;;;;6.27;5.67;;;;;;;;;;4954761;29;20494;-90
2021/07/28 07:01:32;;;;;;;7.80;5.80;;;;;;;;;;4952517;29;20957;-88
2021/07/28 07:03:59;;;;;;;5.40;4.67;;;;;;;;;;4955651;28;20455;-92
2021/07/28 07:06:26;;;;;;;8.33;5.27;;;;;;;;;;4957489;29;20449;-89
2021/07/28 07:08:55;;;;;;;7.33;5.77;;;16.50;99.90;;;;;;4958696;29;20840;-89
2021/07/28 07:11:22;;;;;;;6.27;5.30;;;;;;;;;;4955699;29;20463;-89
2021/07/28 07:13:50;;;;;;;8.17;6.10;;;;;;;;;;4958614;29;20449;-90
2021/07/28 07:16:17;;;;;;;8.93;6.00;;;;;;;;;;4958983;29;20801;-89
2021/07/28 07:18:44;;;;;;;8.60;5.80;;;;;;;;;;4956838;29;20482;-88
2021/07/28 07:21:11;;;;;;;6.47;5.70;;;;;;;;;;4956465;29;20490;-88
2021/07/28 07:23:38;;;;;;;9.60;6.70;;;;;;;;;;4953948;29;20455;-89
2021/07/28 07:26:07;;;;;;;6.40;5.50;;;16.60;99.90;;;;;;4957703;29;20809;-89
2021/07/28 07:28:35;;;;;;;8.33;6.67;;;;;;;;;;4957592;29;20455;-87
2021/07/28 07:31:02;;;;;;;9.33;5.70;;;;;;;;;;4957689;29;20451;-89
2021/07/28 07:33:39;;;;;;;10.73;5.70;;;;;;;;;;4958833;29;20459;-89
2021/07/28 07:36:07;;;;;;;7.30;6.10;;;16.60;99.90;;;;;;4956784;29;20546;-88
2021/07/28 07:38:34;;;;;;;9.00;5.83;;;;;;;;;;4952708;29;20456;-91
2021/07/28 07:41:01;;;;;;;7.00;6.20;;;;;;;;;;4957442;29;20498;-89
2021/07/28 07:43:30;;;;;;;7.93;6.50;;;;;;;;;;4957873;29;20443;-89
2021/07/28 07:45:57;;;;;;;6.77;5.80;;;;;;;;;;4957585;29;20924;-85
2021/07/28 07:48:24;;;;;;;6.23;5.60;;;;;;;;;;4956945;29;20487;-87
2021/07/28 07:50:52;;;;;;;9.53;5.53;;;;;;;;;;4956116;29;20478;-87
2021/07/28 07:53:19;;;;;;;7.33;6.10;;;;;;;;;;4957146;29;20812;-89
2021/07/28 07:55:46;;;;;;;8.03;5.97;;;;;;;;;;4953377;29;20939;-88
2021/07/28 07:58:13;;;;;;;7.00;6.30;;;;;;;;;;4957157;29;20455;-89
2021/07/28 08:00:41;;;;;;;6.30;5.70;;;16.60;99.90;;;;;;4956992;29;20486;-87
2021/07/28 08:03:08;;;;;;;9.23;6.73;;;;;;;;;;4957031;29;20455;-88
2021/07/28 08:05:36;;;;;;;6.80;5.73;;;;;;;;;;4955881;29;20817;-88
2021/07/28 08:08:03;;;;;;;6.73;5.90;;;;;;;;;;4956918;29;20455;-88
2021/07/28 08:10:30;;;;;;;7.93;6.50;;;;;;;;;;4956843;29;20461;-87
2021/07/28 08:12:57;;;;;;;7.20;6.13;;;;;;;;;;4956628;29;20462;-88
2021/07/28 08:15:24;;;;;;;6.20;5.60;;;;;;;;;;4956561;28;20462;-88
2021/07/28 08:17:52;;;;;;;7.00;6.30;;;16.70;99.90;;;;;;4956589;29;20481;-89
2021/07/28 08:20:19;;;;;;;7.40;6.20;;;;;;;;;;4955872;29;20549;-86
2021/07/28 08:22:46;;;;;;;6.80;6.10;;;;;;;;;;4956448;29;20459;-87
2021/07/28 08:25:14;;;;;;;7.10;6.37;;;;;;;;;;4956707;29;20819;-86
2021/07/28 08:27:41;;;;;;;6.37;5.43;;;;;;;;;;4956441;29;20451;-88
2021/07/28 08:30:09;;;;;;;6.57;5.97;;;16.90;99.90;;;;;;4956421;29;20459;-87
2021/07/28 08:32:36;;;;;;;6.33;5.73;;;;;;;;;;4956482;29;20452;-88
2021/07/28 08:35:05;;;;;;;6.80;6.03;;;16.80;99.90;;;;;;4955508;29;20459;-89
2021/07/28 08:37:32;;;;;;;7.50;6.07;;;;;;;;;;4953564;29;20451;-88
2021/07/28 08:39:59;;;;;;;6.53;5.83;;;;;;;;;;4950451;29;20495;-86
2021/07/28 08:42:29;;;;;;;6.67;6.07;;;16.70;99.90;;;;;;4956239;29;20458;-87
2021/07/28 08:44:56;;;;;;;6.33;5.33;;;;;;;;;;4953110;29;20490;-87
2021/07/28 08:47:25;;;;;;;6.57;5.87;;;16.90;99.90;;;;;;4955833;29;20451;-87
2021/07/28 08:49:52;;;;;;;7.90;5.60;;;;;;;;;;4955302;29;20454;-89
2021/07/28 08:52:21;;;;;;;10.57;5.80;;;17.10;99.90;;;;;;4956000;29;20491;-88
2021/07/28 08:54:48;;;;;;;5.97;5.37;;;;;;;;;;4956246;29;20451;-88
2021/07/28 08:57:15;;;;;;;7.10;5.07;;;;;;;;;;4955825;29;20454;-87
2021/07/28 08:59:42;;;;;;;5.80;5.20;;;;;;;;;;4956063;29;20443;-86
2021/07/28 09:02:10;;;;;;;8.93;5.80;;;;;;;;;;4956091;29;20451;-87
2021/07/28 09:04:37;;;;;;;7.03;6.00;;;;;;;;;;4955333;29;20443;-86
2021/07/28 09:07:14;;;;;;;6.07;5.17;;;17.60;99.90;;;;;;4954083;29;20825;-86
2021/07/28 09:09:53;;;;;;;6.27;5.57;;;17.60;99.90;;;;;;4955862;29;20513;-88
2021/07/28 09:12:21;;;;;;;7.17;5.23;;;;;;;;;;4955814;29;21017;-89
2021/07/28 09:14:55;;;;;;;5.80;4.67;;;18.20;99.90;;;;;;4955808;29;20451;-88
2021/07/28 09:17:27;;;;;;;5.50;4.20;;;18.00;99.90;;;;;;4956362;29;20994;-93
2021/07/28 09:19:55;;;;;;;5.00;4.50;;;;;;;;;;4955117;29;20451;-89
2021/07/28 09:22:23;;;;;;;5.83;5.10;;;18.30;99.90;;;;;;4956554;29;20451;-89
2021/07/28 09:25:18;;;;;;;6.53;4.07;;;18.40;99.90;;;;;;4956475;29;20853;-89
2021/07/28 09:27:47;;;;;;;7.23;5.90;;;18.30;99.90;;;;;;4955559;28;20465;-89
2021/07/28 09:30:18;;;;;;;5.10;4.57;;;18.70;99.90;;;;;;4956315;29;20509;-91
2021/07/28 09:32:59;;;;;;;6.00;5.27;;;18.60;99.90;;;;;;4955953;29;20458;-90
2021/07/28 09:36:08;;;;;;;3.70;3.33;;;18.40;99.90;;;;;;4956439;29;20458;-93
2021/07/28 09:38:36;;;;;;;4.47;4.07;;;18.50;99.90;;;;;;4955955;29;20458;-87
2021/07/28 09:41:27;;;;;;;4.63;3.63;;;18.50;99.90;;;;;;4962256;29;20474;-92
2021/07/28 09:43:57;;;;;;;7.33;4.97;;;18.40;99.90;;;;;;4951889;29;20521;-88
2021/07/28 09:46:28;;;;;;;4.20;3.50;;;18.70;99.90;;;;;;4957063;29;20462;-91
2021/07/28 09:48:56;;;;;;;6.07;4.93;;;;;;;;;;4959145;29;20478;-93
2021/07/28 09:51:27;;;;;;;6.73;6.10;;;19.30;99.90;;;;;;4956454;29;20451;-95
2021/07/28 09:53:55;;;;;;;5.83;5.17;;;19.30;99.90;;;;;;4964691;29;20496;-94
2021/07/28 09:56:44;;;;;;;6.67;4.27;;;19.60;99.90;;;;;;4951532;29;20462;-91
2021/07/28 09:59:11;;;;;;;5.03;4.23;;;;;;;;;;4955898;29;20451;-92
2021/07/28 10:01:39;;;;;;;5.50;3.40;;;;;;;;;;4955295;29;20498;-92
2021/07/28 10:04:06;;;;;;;4.97;4.50;;;19.70;99.90;;;;;;4957833;29;20447;-92
2021/07/28 10:06:49;;;;;;;4.00;2.97;;;19.60;99.90;;;;;;4955742;29;20455;-92
2021/07/28 10:09:18;;;;;;;3.97;3.57;;;;;;;;;;4957304;29;20455;-93
2021/07/28 10:11:48;;;;;;;4.50;3.93;;;19.20;99.90;;;;;;4961498;29;20430;-94
2021/07/28 10:14:18;;;;;;;5.33;4.57;;;19.20;99.90;;;;;;4973509;23;20490;-93
2021/07/28 10:16:45;;;;;;;6.53;4.50;;;;;;;;;;4975721;28;20470;-95
2021/07/28 10:19:12;;;;;;;7.13;4.27;;;;;;;;;;4983421;23;20441;31
2021/07/28 10:21:39;;;;;;;5.80;5.13;;;19.30;99.90;;;;;;4959986;28;20500;-93
2021/07/28 10:24:09;;;;;;;5.57;4.70;;;19.20;99.90;;;;;;4963217;29;20439;-94
2021/07/28 10:26:38;;;;;;;7.27;2.73;;;19.10;99.90;;;;;;4957303;29;20463;-95
2021/07/28 10:29:08;;;;;;;4.87;4.37;;;19.20;99.90;;;;;;4956152;29;20448;-94
2021/07/28 10:31:46;;;;;;;5.40;3.17;;;19.20;99.90;;;;;;4958013;29;20439;-93
2021/07/28 10:34:27;;;;;;;7.13;3.73;;;19.00;99.90;;;;;;4955332;29;20834;-88
2021/07/28 10:36:58;;;;;;;5.03;3.90;;;18.90;99.90;;;;;;4954666;29;20490;-95
2021/07/28 10:39:42;;;;;;;5.37;4.87;;;19.00;99.90;;;;;;4954876;28;20451;-92
2021/07/28 10:42:10;;;;;;;4.33;3.93;;;18.90;99.90;;;;;;4982202;28;20486;-92
2021/07/28 10:45:03;;;;;;;4.30;3.63;;;19.00;99.90;;;;;;4976915;28;20454;-92
2021/07/28 10:47:41;;;;;;;5.67;4.13;;;19.00;99.90;;;;;;4961526;29;20446;-92
2021/07/28 10:50:30;;;;;;;4.80;4.30;;;19.90;99.90;;;;;;4958736;29;20455;-90
2021/07/28 10:55:40;;;;;;;6.33;4.17;;;;;;;;;;4960046;29;20447;-93
2021/07/28 10:58:25;;;;;;;5.83;4.17;;;20.10;99.90;;;;;;4959922;29;20462;-91
2021/07/28 11:03:48;;;;;;;4.13;3.73;;;;;;;;;;5155519;27;20515;-92
2021/07/28 11:06:23;;;;;;;5.33;4.50;;;17.00;99.90;;;;;;5150461;27;20445;-93
2021/07/28 11:08:50;;;;;;;6.03;4.13;;;;;;;;;;5155678;27;20902;-94
2021/07/28 11:11:30;;;;;;;5.63;3.93;;;19.70;99.90;;;;;;5155954;27;20434;-93
2021/07/28 11:14:04;;;;;;;4.50;3.93;;;20.20;99.90;;;;;;5156627;27;20482;-91
2021/07/28 11:16:31;;;;;;;6.03;4.67;;;;;;;;;;5156275;27;20463;-93
2021/07/28 11:18:59;;;;;;;4.80;4.10;;;21.30;99.90;;;;;;5157437;27;20426;-92
2021/07/28 11:21:28;;;;;;;5.00;4.40;;;21.50;99.90;;;;;;5157134;27;20450;-91
2021/07/28 11:23:59;;;;;;;4.63;4.20;;;;;;;;;;5158026;27;20426;-92
2021/07/28 11:26:28;;;;;;;6.03;3.83;;;21.40;99.90;;;;;;5154849;27;20499;-92
2021/07/28 11:28:57;;;;;;;5.60;4.83;;;21.70;99.90;;;;;;5153222;27;20438;-92
2021/07/28 11:31:26;;;;;;;5.23;4.40;;;22.30;99.90;;;;;;5148842;27;20430;-90
2021/07/28 11:34:13;;;;;;;4.50;4.10;;;21.60;99.90;;;;;;5155619;27;20469;-92
2021/07/28 11:36:41;;;;;;;4.87;4.17;;;21.60;99.90;;;;;;5155802;27;20475;-90
2021/07/28 11:39:19;;;;;;;4.87;4.40;;;22.50;99.90;;;;;;5154261;27;20442;-90
2021/07/28 11:41:47;;;;;;;4.27;3.87;;;22.60;99.90;;;;;;5154994;27;20442;-92
2021/07/28 11:44:15;;;;;;;3.47;2.43;;;22.40;99.90;;;;;;5152357;27;20443;-88
2021/07/28 11:46:50;;;;;;;3.83;3.40;;;21.60;99.90;;;;;;5151897;27;20465;-92
2021/07/28 11:49:19;;;;;;;5.30;3.97;;;22.40;99.90;;;;;;5153600;27;20438;-90
2021/07/28 11:51:47;;;;;;;5.70;4.37;;;;;;;;;;5148803;27;20496;-91
2021/07/28 11:54:15;;;;;;;3.93;3.60;;;22.90;99.90;;;;;;5158291;27;20441;-89
2021/07/28 11:56:47;;;;;;;5.07;4.33;;;22.60;99.90;;;;;;5156448;27;20443;-94
2021/07/28 11:59:16;;;;;;;4.90;4.00;;;;;;;;;;5154849;27;20917;-90
2021/07/28 12:01:51;;;;;;;4.10;3.70;;;22.40;99.90;;;;;;5158809;27;20531;-90
2021/07/28 12:04:22;;;;;;;3.60;3.30;;;23.10;99.90;;;;;;5154911;27;20471;-90
2021/07/28 12:06:49;;;;;;;3.97;3.57;;;23.10;99.90;;;;;;5155129;27;20458;-93
2021/07/28 12:09:19;;;;;;;5.20;4.70;;;23.40;99.90;;;;;;5154009;27;20933;-92
2021/07/28 12:12:01;;;;;;;4.43;3.97;;;23.40;99.90;;;;;;5153346;27;20517;-89
2021/07/28 12:14:34;;;;;;;5.10;4.60;;;23.80;99.90;;;;;;5147116;22;20507;-88
2021/07/28 12:17:03;;;;;;;4.87;4.37;;;23.10;99.90;;;;;;5078798;28;20480;-91
2021/07/28 12:19:34;;;;;;;5.30;3.47;;;23.10;99.90;;;;;;5078903;28;20453;-89
2021/07/28 12:22:06;;;;;;;4.40;4.00;;;22.50;99.90;;;;;;5079230;28;20462;-92
2021/07/28 12:24:41;;;;;;;3.83;3.53;;;22.00;99.90;;;;;;5076102;28;20941;-91
2021/07/28 12:27:36;;;;;;;4.40;3.87;;;21.50;99.90;;;;;;5081649;28;20449;-91
2021/07/28 12:30:06;;;;;;;4.90;4.50;;;22.10;99.90;;;;;;5062430;28;20457;-90
2021/07/28 12:32:37;;;;;;;3.80;3.43;;;22.20;99.90;;;;;;5083592;28;20462;-93
2021/07/28 12:35:26;;;;;;;4.20;3.73;;;21.90;99.90;;;;;;5082384;28;20450;-94
2021/07/28 12:38:05;;;;;;;4.10;3.70;;;22.10;99.90;;;;;;5083230;28;20998;-91
2021/07/28 12:40:33;;;;;;;3.30;2.67;;;;;;;;;;5086728;28;20449;-95
2021/07/28 12:43:00;;;;;;;3.00;2.70;;;;;;;;;;5083970;28;20478;-93
2021/07/28 12:45:27;;;;;;;5.33;4.03;;;;;;;;;;5081715;28;20445;-89
2021/07/28 12:47:55;;;;;;;5.50;4.50;;;;;;;;;;5083051;28;20438;-93
2021/07/28 12:50:34;;;;;;;5.00;4.50;;;23.00;99.90;;;;;;5081705;28;20466;-94
2021/07/28 12:53:04;;;;;;;5.07;4.07;;;23.70;99.90;;;;;;5008602;28;20528;-89
2021/07/28 12:55:31;;;;;;;4.83;3.10;;;;;;;;;;5001257;28;20512;-95
2021/07/28 12:57:58;;;;;;;5.00;4.50;;;;;;;;;;5001007;28;20973;-89
2021/07/28 13:00:25;;;;;;;4.20;3.77;;;;;;;;;;5004774;28;20460;-92
2021/07/28 13:02:52;;;;;;;4.40;4.00;;;;;;;;;;5005666;28;20500;-91
2021/07/28 13:05:21;;;;;;;4.50;3.37;;;;;;;;;;5005564;28;20441;-92
2021/07/28 13:07:57;;;;;;;4.50;3.73;;;;;;;;;;5005764;28;20444;-92
2021/07/28 13:10:25;;;;;;;3.90;3.43;;;;;;;;;;5009334;28;20437;-89
2021/07/28 13:12:52;;;;;;;5.17;3.77;;;;;;;;;;5007304;28;20488;-92
2021/07/28 13:15:20;;;;;;;4.23;3.80;;;;;;;;;;5008919;28;20493;-91
2021/07/28 13:17:47;;;;;;;4.53;3.40;;;;;;;;;;5046444;28;20525;-94
2021/07/28 13:20:14;;;;;;;4.30;3.90;;;;;;;;;;5077758;28;20453;-95
2021/07/28 13:22:41;;;;;;;4.60;4.13;;;;;;;;;;5079519;28;20477;-93
2021/07/28 13:25:14;;;;;;;4.07;3.67;;;24.00;99.90;;;;;;5077498;28;20441;-94
2021/07/28 13:27:42;;;;;;;6.00;3.30;;;;;;;;;;5081563;28;20446;-89
2021/07/28 13:30:10;;;;;;;3.00;2.70;;;23.80;99.90;;;;;;5096184;28;20422;-93
2021/07/28 13:32:37;;;;;;;4.70;4.30;;;;;;;;;;5078451;28;20458;-93
2021/07/28 13:35:05;;;;;;;4.20;3.80;;;;;;;;;;5056102;28;20451;-93
2021/07/28 13:37:32;;;;;;;3.87;3.37;;;24.20;99.90;;;;;;5056656;28;20446;-92
2021/07/28 13:39:59;;;;;;;4.27;3.87;;;;;;;;;;5056766;28;20456;-94
2021/07/28 13:42:31;;;;;;;6.10;3.93;;;;;;;;;;5057990;28;20473;-93
2021/07/28 13:44:58;;;;;;;4.70;4.20;;;;;;;;;;5038007;28;20486;-92
2021/07/28 13:47:26;;;;;;;4.37;3.87;;;;;;;;;;5037572;28;20448;-91
2021/07/28 13:49:57;;;;;;;6.90;3.80;;;24.30;99.90;;;;;;5035704;28;20487;-94
2021/07/28 13:52:25;;;;;;;4.43;3.90;;;;;;;;;;5032132;28;20502;-94
2021/07/28 13:54:52;;;;;;;4.00;3.60;;;;;;;;;;5038296;28;20949;-91
2021/07/28 13:57:21;;;;;;;4.70;4.13;;;;;;;;;;5035998;28;20478;-91
2021/07/28 13:59:49;;;;;;;4.77;4.37;;;24.50;99.90;;;;;;5084424;22;20451;-94
2021/07/28 14:02:19;;;;;;;4.00;3.50;;;25.20;99.90;;;;;;5076328;28;20430;-93
2021/07/28 14:04:48;;;;;;;4.80;3.87;;;24.70;99.90;;;;;;5081433;28;20450;-93
2021/07/28 14:07:15;;;;;;;5.30;4.10;;;;;;;;;;5078211;28;20442;-91
2021/07/28 14:09:43;;;;;;;6.70;3.10;;;22.90;99.90;;;;;;5082339;28;20917;-92
2021/07/28 14:12:12;;;;;;;3.23;2.17;;;;;;;;;;5078504;28;20430;-88
2021/07/28 14:14:39;;;;;;;4.67;4.17;;;;;;;;;;5080326;28;20539;-91